createdAt,value
2023-03-24T00:00:20.309Z,1.60
2023-03-24T00:02:49.907Z,1.83
2023-03-24T00:05:21.424Z,1.47
2023-03-24T00:07:54.512Z,1.43
2023-03-24T00:10:24.159Z,1.77
2023-03-24T00:12:54.141Z,2.10
2023-03-24T00:15:24.507Z,1.50
2023-03-24T00:17:55.866Z,1.47
2023-03-24T00:20:26.340Z,1.40
2023-03-24T00:22:58.840Z,1.40
2023-03-24T00:25:34.128Z,1.10
2023-03-24T00:28:05.803Z,1.30
2023-03-24T00:30:36.234Z,1.23
2023-03-24T00:33:04.523Z,1.23
2023-03-24T00:35:32.900Z,1.37
2023-03-24T00:38:00.908Z,1.30
2023-03-24T00:40:29.937Z,1.30
2023-03-24T00:42:59.189Z,1.37
2023-03-24T00:45:29.472Z,1.30
2023-03-24T00:47:58.076Z,1.10
2023-03-24T00:50:27.696Z,1.50
2023-03-24T00:52:58.272Z,1.20
2023-03-24T00:55:28.775Z,1.17
2023-03-24T00:57:57.404Z,1.37
2023-03-24T01:00:28.509Z,1.20
2023-03-24T01:02:59.134Z,1.40
2023-03-24T01:05:31.912Z,1.27
2023-03-24T01:08:03.870Z,1.50
2023-03-24T01:10:36.077Z,1.10
2023-03-24T01:13:05.432Z,1.17
2023-03-24T01:15:36.578Z,1.40
2023-03-24T01:18:05.222Z,1.40
2023-03-24T01:20:35.750Z,1.37
2023-03-24T01:23:06.061Z,1.13
2023-03-24T01:25:37.024Z,1.00
2023-03-24T01:28:05.967Z,1.10
2023-03-24T01:30:35.770Z,1.33
2023-03-24T01:33:04.076Z,1.10
2023-03-24T01:35:32.752Z,1.50
2023-03-24T01:38:01.012Z,1.13
2023-03-24T01:40:33.537Z,1.57
2023-03-24T01:43:02.361Z,1.20
2023-03-24T01:45:58.698Z,1.23
2023-03-24T01:48:32.765Z,1.13
2023-03-24T01:51:08.619Z,1.10
2023-03-24T01:53:43.959Z,1.00
2023-03-24T01:56:13.498Z,1.10
2023-03-24T01:58:52.114Z,1.20
2023-03-24T02:01:30.563Z,1.27
2023-03-24T02:04:11.149Z,1.47
2023-03-24T02:06:43.893Z,1.27
2023-03-24T02:09:15.607Z,1.13
2023-03-24T02:11:45.739Z,1.50
2023-03-24T02:14:15.057Z,1.20
2023-03-24T02:17:06.736Z,1.33
2023-03-24T02:20:19.890Z,1.17
2023-03-24T02:23:33.997Z,1.10
2023-03-24T02:26:54.288Z,1.30
2023-03-24T02:30:14.590Z,1.57
2023-03-24T02:33:34.567Z,1.20
2023-03-24T02:37:04.113Z,1.30
2023-03-24T02:39:53.575Z,1.40
2023-03-24T02:42:34.217Z,1.30
2023-03-24T02:45:20.425Z,1.20
2023-03-24T02:48:05.404Z,1.20
2023-03-24T02:50:44.075Z,1.40
2023-03-24T02:53:22.738Z,1.20
2023-03-24T02:56:16.832Z,1.40
2023-03-24T02:58:52.653Z,1.30
2023-03-24T03:01:32.013Z,1.53
2023-03-24T03:04:19.255Z,1.30
2023-03-24T03:06:53.902Z,1.30
2023-03-24T03:09:24.715Z,1.10
2023-03-24T03:11:59.166Z,1.60
2023-03-24T03:14:36.630Z,1.60
2023-03-24T03:17:12.904Z,1.47
2023-03-24T03:19:46.301Z,1.53
2023-03-24T03:22:20.697Z,1.50
2023-03-24T03:24:55.438Z,1.60
2023-03-24T03:27:31.293Z,1.47
2023-03-24T03:30:04.785Z,1.50
2023-03-24T03:32:39.042Z,1.53
2023-03-24T03:35:16.010Z,1.27
2023-03-24T03:37:53.750Z,1.70
2023-03-24T03:40:27.699Z,1.10
2023-03-24T03:43:06.079Z,1.47
2023-03-24T03:45:36.073Z,1.30
2023-03-24T03:48:04.635Z,1.60
2023-03-24T03:50:33.052Z,1.20
2023-03-24T03:53:06.765Z,1.30
2023-03-24T03:55:36.247Z,1.10
2023-03-24T03:58:07.529Z,1.30
2023-03-24T04:00:45.061Z,1.10
2023-03-24T04:04:00.057Z,1.43
2023-03-24T04:06:57.676Z,1.17
2023-03-24T04:09:41.953Z,1.30
2023-03-24T04:12:36.790Z,1.30
2023-03-24T04:15:37.918Z,1.27
2023-03-24T04:18:47.252Z,1.03
2023-03-24T04:21:51.703Z,1.10
2023-03-24T04:24:40.166Z,1.20
2023-03-24T04:27:14.934Z,1.23
2023-03-24T04:29:56.244Z,1.10
2023-03-24T04:32:41.621Z,1.20
2023-03-24T04:35:20.878Z,1.40
2023-03-24T04:38:17.263Z,1.90
2023-03-24T04:40:53.104Z,2.00
2023-03-24T04:43:27.377Z,2.30
2023-03-24T04:45:58.969Z,2.33
2023-03-24T04:48:41.618Z,2.53
2023-03-24T04:51:21.957Z,2.03
2023-03-24T04:54:04.434Z,2.97
2023-03-24T04:56:45.977Z,3.10
2023-03-24T04:59:22.697Z,2.77
2023-03-24T05:01:51.691Z,3.03
2023-03-24T05:04:50.486Z,3.40
2023-03-24T05:07:27.106Z,3.03
2023-03-24T05:09:59.329Z,2.93
2023-03-24T05:12:27.709Z,3.10
2023-03-24T05:15:21.252Z,2.97
2023-03-24T05:17:54.449Z,3.27
2023-03-24T05:20:28.718Z,3.00
2023-03-24T05:23:06.494Z,3.27
2023-03-24T05:25:34.611Z,3.80
2023-03-24T05:28:02.883Z,3.20
2023-03-24T05:30:31.892Z,2.93
2023-03-24T05:33:09.750Z,3.40
2023-03-24T05:35:39.199Z,3.77
2023-03-24T05:38:07.696Z,3.57
2023-03-24T05:40:37.190Z,3.13
2023-03-24T05:43:15.884Z,3.13
2023-03-24T05:45:51.280Z,3.33
2023-03-24T05:48:32.137Z,3.20
2023-03-24T05:51:22.509Z,3.00
2023-03-24T05:54:02.357Z,3.00
2023-03-24T05:56:35.577Z,2.90
2023-03-24T05:59:04.005Z,2.97
2023-03-24T06:02:02.520Z,2.70
2023-03-24T06:04:46.834Z,3.67
2023-03-24T06:07:19.529Z,3.47
2023-03-24T06:09:50.944Z,4.00
2023-03-24T06:12:21.994Z,5.27
2023-03-24T06:15:00.846Z,3.77
2023-03-24T06:17:31.388Z,6.50
2023-03-24T06:20:06.202Z,2.73
2023-03-24T06:22:39.096Z,2.57
2023-03-24T06:25:15.165Z,2.53
2023-03-24T06:27:49.949Z,2.57
2023-03-24T06:30:22.999Z,2.50
2023-03-24T06:32:51.597Z,2.60
2023-03-24T06:35:21.450Z,2.63
2023-03-24T06:37:57.971Z,2.20
2023-03-24T06:40:26.392Z,2.20
2023-03-24T06:42:58.170Z,2.20
2023-03-24T06:45:28.617Z,2.30
2023-03-24T06:47:58.207Z,2.10
2023-03-24T06:50:32.602Z,2.40
2023-03-24T06:53:03.849Z,3.20
2023-03-24T06:55:34.443Z,2.50
2023-03-24T06:58:03.419Z,3.30
2023-03-24T07:00:53.773Z,2.53
2023-03-24T07:03:52.409Z,2.30
2023-03-24T07:06:40.456Z,2.83
2023-03-24T07:09:21.298Z,2.23
2023-03-24T07:11:49.316Z,2.03
2023-03-24T07:14:17.958Z,2.03
2023-03-24T07:16:47.114Z,1.93
2023-03-24T07:19:37.425Z,2.00
2023-03-24T07:22:25.496Z,1.70
2023-03-24T07:25:27.637Z,1.37
2023-03-24T07:28:05.653Z,1.40
2023-03-24T07:30:40.634Z,1.87
2023-03-24T07:33:24.152Z,1.50
2023-03-24T07:35:57.154Z,1.47
2023-03-24T07:38:25.895Z,1.40
2023-03-24T07:41:00.629Z,1.10
2023-03-24T07:43:33.945Z,1.57
2023-03-24T07:46:25.981Z,3.40
2023-03-24T07:48:54.536Z,1.80
2023-03-24T07:51:22.843Z,1.50
2023-03-24T07:53:54.936Z,1.73
2023-03-24T07:56:32.274Z,2.63
2023-03-24T07:59:02.480Z,4.17
2023-03-24T08:01:47.250Z,4.73
2023-03-24T08:04:20.467Z,2.37
2023-03-24T08:06:48.946Z,4.40
2023-03-24T08:09:17.661Z,6.90
2023-03-24T08:11:47.429Z,7.27
2023-03-24T08:14:15.436Z,2.77
2023-03-24T08:16:46.325Z,2.87
2023-03-24T08:19:14.468Z,5.77
2023-03-24T08:21:42.504Z,5.20
2023-03-24T08:24:10.735Z,5.50
2023-03-24T08:26:39.119Z,5.60
2023-03-24T08:29:08.485Z,8.47
2023-03-24T08:31:38.617Z,4.03
2023-03-24T08:34:07.836Z,5.53
2023-03-24T08:36:35.887Z,5.73
2023-03-24T08:39:06.768Z,0.90
2023-03-24T08:41:35.597Z,0.77
2023-03-24T08:44:06.804Z,0.97
2023-03-24T08:46:36.721Z,2.23
2023-03-24T08:49:05.961Z,0.87
2023-03-24T08:51:34.753Z,1.00
2023-03-24T08:54:03.891Z,1.40
2023-03-24T08:56:32.442Z,1.10
2023-03-24T08:59:00.586Z,1.30
2023-03-24T09:01:30.388Z,1.13
2023-03-24T09:03:59.788Z,1.30
2023-03-24T09:06:28.145Z,0.80
2023-03-24T09:08:57.075Z,0.93
2023-03-24T09:11:25.497Z,1.10
2023-03-24T09:13:53.898Z,1.00
2023-03-24T09:16:23.822Z,0.90
2023-03-24T09:18:51.927Z,0.50
2023-03-24T09:21:21.606Z,0.60
2023-03-24T09:23:49.659Z,1.30
2023-03-24T09:26:17.684Z,0.70
2023-03-24T09:28:46.060Z,0.80
2023-03-24T09:31:14.160Z,0.77
2023-03-24T09:33:42.345Z,0.73
2023-03-24T09:36:12.138Z,0.70
2023-03-24T09:38:42.008Z,0.80
2023-03-24T09:41:19.029Z,0.83
2023-03-24T09:43:56.707Z,0.70
2023-03-24T09:46:32.887Z,0.80
2023-03-24T09:49:01.138Z,0.80
2023-03-24T09:51:33.980Z,0.80
2023-03-24T09:54:15.496Z,0.53
2023-03-24T09:56:49.974Z,0.53
2023-03-24T09:59:22.786Z,0.83
2023-03-24T10:01:52.056Z,0.60
2023-03-24T10:04:23.685Z,0.90
2023-03-24T10:07:01.966Z,0.70
2023-03-24T10:09:35.368Z,0.70
2023-03-24T10:12:28.574Z,0.70
2023-03-24T10:15:10.487Z,0.60
2023-03-24T10:17:49.384Z,1.90
2023-03-24T10:20:32.927Z,0.97
2023-03-24T10:23:08.773Z,0.80
2023-03-24T10:25:50.003Z,5.50
2023-03-24T10:28:24.716Z,0.53
2023-03-24T10:30:56.856Z,0.70
2023-03-24T10:33:25.151Z,0.53
2023-03-24T10:36:02.449Z,0.70
2023-03-24T10:38:30.592Z,0.70
2023-03-24T10:41:02.775Z,0.60
2023-03-24T10:43:33.477Z,0.63
2023-03-24T10:46:04.434Z,1.00
2023-03-24T10:48:43.152Z,1.13
2023-03-24T10:51:17.942Z,0.90
2023-03-24T10:53:49.102Z,0.90
2023-03-24T10:56:38.194Z,0.90
2023-03-24T10:59:20.258Z,1.10
2023-03-24T11:01:49.294Z,0.90
2023-03-24T11:04:21.175Z,0.80
2023-03-24T11:07:06.379Z,1.13
2023-03-24T11:09:42.223Z,0.80
2023-03-24T11:12:26.566Z,1.10
2023-03-24T11:15:14.202Z,0.90
2023-03-24T11:17:53.495Z,2.63
2023-03-24T11:20:29.749Z,0.70
2023-03-24T11:23:02.708Z,0.70
2023-03-24T11:25:34.471Z,0.80
2023-03-24T11:28:09.877Z,0.40
2023-03-24T11:30:49.313Z,2.17
2023-03-24T11:33:34.595Z,0.80
2023-03-24T11:36:30.910Z,1.23
2023-03-24T11:39:03.661Z,1.40
2023-03-24T11:41:31.946Z,0.67
2023-03-24T11:44:19.790Z,0.50
2023-03-24T11:46:53.372Z,0.63
2023-03-24T11:49:55.717Z,0.67
2023-03-24T11:52:29.651Z,0.80
2023-03-24T11:54:58.106Z,0.60
2023-03-24T11:57:46.007Z,0.80
2023-03-24T12:00:24.822Z,0.70
2023-03-24T12:03:50.743Z,0.63
2023-03-24T12:06:34.811Z,0.60
2023-03-24T12:09:23.108Z,0.70
2023-03-24T12:12:15.515Z,0.60
2023-03-24T12:15:20.672Z,0.50
2023-03-24T12:18:13.696Z,1.10
2023-03-24T12:20:51.828Z,0.63
2023-03-24T12:23:30.083Z,0.53
2023-03-24T12:26:18.855Z,0.63
2023-03-24T12:28:59.376Z,0.27
2023-03-24T12:31:56.166Z,0.40
2023-03-24T12:35:25.337Z,0.40
2023-03-24T12:38:08.775Z,0.50
2023-03-24T12:41:08.606Z,1.00
2023-03-24T12:43:48.751Z,1.10
2023-03-24T12:46:47.915Z,0.97
2023-03-24T12:49:42.926Z,2.17
2023-03-24T12:52:51.170Z,1.10
2023-03-24T12:55:39.956Z,1.27
2023-03-24T12:58:19.114Z,1.00
2023-03-24T13:01:02.229Z,1.07
2023-03-24T13:03:41.333Z,1.10
2023-03-24T13:06:22.001Z,1.57
2023-03-24T13:09:06.046Z,1.17
2023-03-24T13:11:48.612Z,1.10
2023-03-24T13:14:26.618Z,1.07
2023-03-24T13:17:06.254Z,0.90
2023-03-24T13:19:38.887Z,1.37
2023-03-24T13:22:15.637Z,1.40
2023-03-24T13:24:44.558Z,1.50
2023-03-24T13:27:24.438Z,1.50
2023-03-24T13:30:31.212Z,1.63
2023-03-24T13:33:08.561Z,1.10
2023-03-24T13:36:00.076Z,0.80
2023-03-24T13:38:37.093Z,1.33
2023-03-24T13:41:08.485Z,0.90
2023-03-24T13:43:37.990Z,1.20
2023-03-24T13:46:13.546Z,0.97
2023-03-24T13:48:45.198Z,1.00
2023-03-24T13:51:20.663Z,1.10
2023-03-24T13:53:56.685Z,1.03
2023-03-24T13:56:32.608Z,1.07
2023-03-24T13:59:27.622Z,1.10
2023-03-24T14:02:46.947Z,1.73
2023-03-24T14:05:35.792Z,0.90
2023-03-24T14:08:15.985Z,0.80
2023-03-24T14:10:50.056Z,1.13
2023-03-24T14:13:35.775Z,0.60
2023-03-24T14:16:50.203Z,0.70
2023-03-24T14:19:31.160Z,1.10
2023-03-24T14:22:12.159Z,0.90
2023-03-24T14:24:43.418Z,0.70
2023-03-24T14:27:38.020Z,1.73
2023-03-24T14:30:17.936Z,2.03
2023-03-24T14:32:49.755Z,0.87
2023-03-24T14:35:32.366Z,0.70
2023-03-24T14:38:05.016Z,0.70
2023-03-24T14:40:38.830Z,0.90
2023-03-24T14:43:23.145Z,0.80
2023-03-24T14:46:02.835Z,0.90
2023-03-24T14:48:41.837Z,1.57
2023-03-24T14:51:41.922Z,1.53
2023-03-24T14:54:18.995Z,6.47
2023-03-24T14:56:53.917Z,6.07
2023-03-24T14:59:42.917Z,3.80
2023-03-24T15:02:33.257Z,1.17
2023-03-24T15:05:29.869Z,0.87
2023-03-24T15:08:14.364Z,0.90
2023-03-24T15:10:49.385Z,1.40
2023-03-24T15:13:40.328Z,1.83
2023-03-24T15:16:21.698Z,0.80
2023-03-24T15:19:01.323Z,1.00
2023-03-24T15:21:36.809Z,0.70
2023-03-24T15:24:30.717Z,0.97
2023-03-24T15:27:22.771Z,0.87
2023-03-24T15:29:59.416Z,0.83
2023-03-24T15:32:38.759Z,0.70
2023-03-24T15:35:13.801Z,0.83
2023-03-24T15:37:48.317Z,1.00
2023-03-24T15:40:35.539Z,1.03
2023-03-24T15:43:07.887Z,0.87
2023-03-24T15:45:51.050Z,0.90
2023-03-24T15:48:26.364Z,0.63
2023-03-24T15:51:01.248Z,1.33
2023-03-24T15:53:42.006Z,0.97
2023-03-24T15:56:21.492Z,1.07
2023-03-24T15:58:53.757Z,0.73
2023-03-24T16:01:36.713Z,0.80
2023-03-24T16:04:07.825Z,0.80
2023-03-24T16:06:38.395Z,1.10
2023-03-24T16:09:13.978Z,0.83
2023-03-24T16:11:43.394Z,0.80
2023-03-24T16:14:23.816Z,1.03
2023-03-24T16:16:56.038Z,0.83
2023-03-24T16:19:25.473Z,0.90
2023-03-24T16:21:54.624Z,0.60
2023-03-24T16:24:24.947Z,0.90
2023-03-24T16:26:52.995Z,0.80
2023-03-24T16:29:24.916Z,0.70
2023-03-24T16:31:56.885Z,0.80
2023-03-24T16:34:25.558Z,1.47
2023-03-24T16:36:56.775Z,1.10
2023-03-24T16:39:28.872Z,1.23
2023-03-24T16:41:58.194Z,0.63
2023-03-24T16:44:26.925Z,0.80
2023-03-24T16:46:57.654Z,1.07
2023-03-24T16:49:26.120Z,0.80
2023-03-24T16:51:55.277Z,0.70
2023-03-24T16:54:24.851Z,1.20
2023-03-24T16:56:52.852Z,0.93
2023-03-24T16:59:22.729Z,0.90
2023-03-24T17:01:53.693Z,1.00
2023-03-24T17:04:23.865Z,1.10
2023-03-24T17:06:54.361Z,0.90
2023-03-24T17:09:24.231Z,1.10
2023-03-24T17:11:57.426Z,1.10
2023-03-24T17:14:25.972Z,1.60
2023-03-24T17:16:54.174Z,1.87
2023-03-24T17:19:25.614Z,1.60
2023-03-24T17:22:00.619Z,1.17
2023-03-24T17:24:31.584Z,1.20
2023-03-24T17:27:01.360Z,1.60
2023-03-24T17:29:30.265Z,2.67
2023-03-24T17:31:58.216Z,1.27
2023-03-24T17:34:26.314Z,2.67
2023-03-24T17:36:54.583Z,1.80
2023-03-24T17:39:23.026Z,1.63
2023-03-24T17:41:51.244Z,2.03
2023-03-24T17:44:20.600Z,1.90
2023-03-24T17:46:49.373Z,2.10
2023-03-24T17:49:17.442Z,1.77
2023-03-24T17:51:45.484Z,1.80
2023-03-24T17:54:14.162Z,1.93
2023-03-24T17:56:42.439Z,1.10
2023-03-24T17:59:10.808Z,2.20
2023-03-24T18:01:40.442Z,2.20
2023-03-24T18:04:09.057Z,3.13
2023-03-24T18:06:38.506Z,1.83
2023-03-24T18:09:09.092Z,2.10
2023-03-24T18:11:37.447Z,3.00
2023-03-24T18:14:07.073Z,3.30
2023-03-24T18:22:49.202Z,2.50
2023-03-24T18:35:02.491Z,1.20
2023-03-24T18:37:33.804Z,1.40
2023-03-24T18:40:11.591Z,2.17
2023-03-24T18:42:46.673Z,1.20
2023-03-24T18:45:19.708Z,1.43
2023-03-24T18:47:51.919Z,1.67
2023-03-24T18:50:25.835Z,1.97
2023-03-24T18:52:58.450Z,1.83
2023-03-24T18:55:30.636Z,1.50
2023-03-24T18:58:02.300Z,2.50
2023-03-24T19:00:34.066Z,2.30
2023-03-24T19:03:07.477Z,2.50
2023-03-24T19:05:39.210Z,1.50
2023-03-24T19:08:15.051Z,2.47
2023-03-24T19:10:46.944Z,2.03
2023-03-24T19:13:19.909Z,1.90
2023-03-24T19:15:56.134Z,2.00
2023-03-24T19:18:29.525Z,1.90
2023-03-24T19:21:03.042Z,1.70
2023-03-24T19:23:34.826Z,1.70
2023-03-24T19:26:05.123Z,3.13
2023-03-24T19:28:37.486Z,2.00
2023-03-24T19:31:12.198Z,2.50
2023-03-24T19:33:41.888Z,2.00
2023-03-24T19:36:14.888Z,1.50
2023-03-24T19:38:46.403Z,2.00
2023-03-24T19:41:17.843Z,2.00
2023-03-24T19:43:48.756Z,1.60
2023-03-24T19:46:21.297Z,2.53
2023-03-24T19:48:51.880Z,2.00
2023-03-24T19:51:24.475Z,1.40
2023-03-24T19:53:56.728Z,2.30
2023-03-24T19:56:28.346Z,2.37
2023-03-24T19:58:59.488Z,2.20
2023-03-24T20:01:35.899Z,2.20
2023-03-24T20:04:06.092Z,2.03
2023-03-24T20:06:39.385Z,1.23
2023-03-24T20:09:11.597Z,1.60
2023-03-24T20:11:42.494Z,1.60
2023-03-24T20:14:13.108Z,1.97
2023-03-24T20:16:44.409Z,2.37
2023-03-24T20:19:15.085Z,1.70
2023-03-24T20:21:47.198Z,1.47
2023-03-24T20:24:18.582Z,1.20
2023-03-24T20:26:49.523Z,1.70
2023-03-24T20:29:20.160Z,1.20
2023-03-24T20:31:53.355Z,1.60
2023-03-24T20:34:23.872Z,1.13
2023-03-24T20:36:56.452Z,1.10
2023-03-24T20:39:27.135Z,1.20
2023-03-24T20:41:57.572Z,1.33
2023-03-24T20:44:28.396Z,1.77
2023-03-24T20:46:59.755Z,1.47
2023-03-24T20:49:29.885Z,1.17
2023-03-24T20:52:01.901Z,1.57
2023-03-24T20:54:32.794Z,1.23
2023-03-24T20:57:03.969Z,1.20
2023-03-24T21:04:00.104Z,1.37
2023-03-24T21:06:39.947Z,1.83
2023-03-24T21:09:13.471Z,1.43
2023-03-24T21:11:44.273Z,1.40
2023-03-24T21:14:14.323Z,1.10
2023-03-24T21:21:22.243Z,1.30
2023-03-24T21:44:11.994Z,2.40
2023-03-24T21:46:42.442Z,1.27
2023-03-24T21:55:17.009Z,1.13
